createdAt,value
2018-04-06T00:19:00.637Z,101610.11
2018-04-06T00:21:28.194Z,101624.27
2018-04-06T00:23:55.787Z,101624.22
2018-04-06T00:26:23.332Z,101633.30
2018-04-06T00:28:51.955Z,101637.05
2018-04-06T00:31:20.506Z,101651.20
2018-04-06T00:33:48.058Z,101656.95
2018-04-06T00:36:15.605Z,101663.34
2018-04-06T00:38:43.145Z,101668.09
2018-04-06T00:41:10.717Z,101675.59
2018-04-06T00:43:38.255Z,101675.45
2018-04-06T00:46:05.807Z,101689.32
2018-04-06T00:48:33.408Z,101698.14
2018-04-06T00:51:00.978Z,101693.05
2018-04-06T00:53:40.271Z,101691.66
2018-04-06T00:56:07.810Z,101694.83
2018-04-06T00:58:35.362Z,101702.40
2018-04-06T01:01:02.919Z,101698.50
2018-04-06T01:03:32.247Z,101705.17
2018-04-06T01:06:00.610Z,101705.04
2018-04-06T01:08:29.087Z,101710.34
2018-04-06T01:10:56.664Z,101714.38
2018-04-06T01:13:24.208Z,101716.95
2018-04-06T01:15:51.826Z,101717.10
2018-04-06T01:18:20.177Z,101703.43
2018-04-06T01:20:48.641Z,101711.50
2018-04-06T01:23:16.987Z,101723.08
2018-04-06T01:25:45.365Z,101725.36
2018-04-06T01:28:12.945Z,101723.73
2018-04-06T01:30:40.490Z,101724.25
2018-04-06T01:33:08.039Z,101721.55
2018-04-06T01:35:36.426Z,101729.75
2018-04-06T01:38:04.834Z,101734.25
2018-04-06T01:40:33.195Z,101737.56
2018-04-06T01:43:01.758Z,101736.91
2018-04-06T01:45:29.312Z,101737.53
2018-04-06T01:47:56.872Z,101735.06
2018-04-06T01:50:24.410Z,101735.11
2018-04-06T01:52:51.955Z,101736.84
2018-04-06T01:55:19.499Z,101745.83
2018-04-06T01:57:47.051Z,101739.88
2018-04-06T02:00:14.633Z,101756.66
2018-04-06T02:05:15.972Z,101755.86
2018-04-06T02:07:43.534Z,101763.50
2018-04-06T02:10:11.077Z,101774.88
2018-04-06T02:12:39.445Z,101778.42
2018-04-06T02:15:06.999Z,101777.28
2018-04-06T02:17:34.609Z,101778.22
2018-04-06T02:20:02.146Z,101780.05
2018-04-06T02:22:29.698Z,101782.09
2018-04-06T02:24:57.242Z,101785.55
2018-04-06T02:27:24.786Z,101787.38
2018-04-06T02:29:52.351Z,101780.07
2018-04-06T02:32:19.897Z,101791.31
2018-04-06T02:34:48.286Z,101800.42
2018-04-06T02:37:15.837Z,101806.23
2018-04-06T02:39:43.395Z,101803.44
2018-04-06T02:42:10.935Z,101806.24
2018-04-06T02:44:38.499Z,101812.42
2018-04-06T02:47:06.041Z,101805.31
2018-04-06T02:49:33.637Z,101806.50
2018-04-06T02:52:01.184Z,101798.70
2018-04-06T02:54:28.732Z,101804.34
2018-04-06T02:56:56.297Z,101808.86
2018-04-06T02:59:23.842Z,101806.62
2018-04-06T03:01:51.422Z,101816.77
2018-04-06T03:04:18.963Z,101811.89
2018-04-06T03:06:47.383Z,101815.00
2018-04-06T03:09:14.956Z,101815.31
2018-04-06T03:11:42.502Z,101817.85
2018-04-06T03:14:10.047Z,101821.13
2018-04-06T03:16:37.630Z,101820.36
2018-04-06T03:19:05.193Z,101831.23
2018-04-06T03:21:32.747Z,101830.59
2018-04-06T03:24:00.311Z,101831.98
2018-04-06T03:26:28.810Z,101831.59
2018-04-06T03:28:56.371Z,101843.55
2018-04-06T03:31:25.379Z,101840.69
2018-04-06T03:33:52.929Z,101843.70
2018-04-06T03:36:20.484Z,101842.08
2018-04-06T03:38:48.068Z,101842.73
2018-04-06T03:41:16.504Z,101846.47
2018-04-06T03:43:44.973Z,101854.30
2018-04-06T03:46:13.347Z,101857.94
2018-04-06T03:48:40.904Z,101850.45
2018-04-06T03:51:09.283Z,101851.97
2018-04-06T03:53:36.875Z,101857.74
2018-04-06T03:56:04.428Z,101857.41
2018-04-06T03:58:31.988Z,101854.44
2018-04-06T04:01:00.349Z,101860.76
2018-04-06T04:03:29.718Z,101858.56
2018-04-06T04:05:57.353Z,101861.89
2018-04-06T04:08:24.907Z,101866.66
2018-04-06T04:10:53.892Z,101868.38
2018-04-06T04:13:22.161Z,101876.08
2018-04-06T04:15:50.671Z,101874.35
2018-04-06T04:18:18.223Z,101876.97
2018-04-06T04:20:46.730Z,101881.88
2018-04-06T04:23:14.289Z,101872.67
2018-04-06T04:25:41.846Z,101878.83
2018-04-06T04:28:10.139Z,101889.57
2018-04-06T04:30:37.703Z,101878.91
2018-04-06T04:33:05.272Z,101878.09
2018-04-06T04:35:32.865Z,101881.70
2018-04-06T04:38:00.414Z,101881.53
2018-04-06T04:40:28.902Z,101884.19
2018-04-06T04:42:56.537Z,101886.03
2018-04-06T04:45:24.779Z,101891.23
2018-04-06T04:47:53.488Z,101891.23
2018-04-06T04:50:22.566Z,101897.08
2018-04-06T04:52:50.144Z,101899.27
2018-04-06T04:55:19.636Z,101901.58
2018-04-06T04:57:48.119Z,101908.73
2018-04-06T05:00:15.678Z,101905.25
2018-04-06T05:02:44.021Z,101912.87
2018-04-06T05:05:11.611Z,101908.69
2018-04-06T05:07:39.204Z,101921.34
2018-04-06T05:10:07.982Z,101919.61
2018-04-06T05:12:36.454Z,101926.67
2018-04-06T05:15:04.057Z,101930.20
2018-04-06T05:17:31.607Z,101933.90
2018-04-06T05:19:59.163Z,101935.97
2018-04-06T05:22:26.730Z,101945.34
2018-04-06T05:24:54.934Z,101943.10
2018-04-06T05:27:23.324Z,101943.02
2018-04-06T05:29:50.950Z,101942.97
2018-04-06T05:32:19.961Z,101948.17
2018-04-06T05:34:48.366Z,101951.44
2018-04-06T05:37:17.149Z,101948.37
2018-04-06T05:39:44.727Z,101950.60
2018-04-06T05:42:13.098Z,101947.55
2018-04-06T05:44:46.204Z,101962.27
2018-04-06T05:47:13.797Z,101957.64
2018-04-06T05:49:41.378Z,101967.10
2018-04-06T05:52:10.387Z,101972.12
2018-04-06T05:54:38.894Z,101974.51
2018-04-06T05:57:10.468Z,101968.01
2018-04-06T05:59:40.643Z,101981.97
2018-04-06T06:02:11.428Z,101977.84
2018-04-06T06:04:39.039Z,101986.48
2018-04-06T06:07:07.992Z,101985.56
2018-04-06T06:09:35.534Z,101995.09
2018-04-06T06:12:06.424Z,101998.93
2018-04-06T06:14:38.376Z,102006.25
2018-04-06T06:17:07.710Z,102007.59
2018-04-06T06:19:37.812Z,102012.23
2018-04-06T06:22:06.318Z,102018.09
2018-04-06T06:24:33.965Z,102014.41
2018-04-06T06:27:03.907Z,102025.56
2018-04-06T06:29:34.660Z,102024.47
2018-04-06T06:32:08.435Z,102027.95
2018-04-06T06:34:36.797Z,102028.36
2018-04-06T06:37:05.126Z,102033.67
2018-04-06T06:39:36.810Z,102036.52
2018-04-06T06:42:05.089Z,102035.09
2018-04-06T06:44:35.107Z,102037.06
2018-04-06T06:47:07.137Z,102036.58
2018-04-06T06:49:35.884Z,102035.88
2018-04-06T06:52:05.986Z,102050.62
2018-04-06T06:54:39.339Z,102044.97
2018-04-06T06:57:12.862Z,102044.22
2018-04-06T06:59:45.903Z,102050.39
2018-04-06T07:02:34.104Z,102053.10
2018-04-06T07:05:05.502Z,102056.81
2018-04-06T07:07:37.626Z,102053.92
2018-04-06T07:10:45.188Z,102045.64
2018-04-06T07:13:14.743Z,102042.74
2018-04-06T07:15:43.398Z,102051.47
2018-04-06T07:18:11.112Z,102050.97
2018-04-06T07:20:39.692Z,102055.88
2018-04-06T07:23:07.985Z,102050.25
2018-04-06T07:25:36.628Z,102060.06
2018-04-06T07:28:05.903Z,102054.70
2018-04-06T07:30:35.308Z,102054.54
2018-04-06T07:33:04.228Z,102063.80
2018-04-06T07:35:34.671Z,102062.89
2018-04-06T07:38:08.559Z,102064.77
2018-04-06T07:40:37.078Z,102054.78
2018-04-06T07:43:09.614Z,102062.41
2018-04-06T07:45:38.013Z,102072.04
2018-04-06T07:48:09.544Z,102069.47
2018-04-06T07:50:39.022Z,102071.06
2018-04-06T07:53:10.723Z,102064.50
2018-04-06T07:55:41.667Z,102066.48
2018-04-06T07:58:11.223Z,102061.04
2018-04-06T08:00:40.522Z,102063.11
2018-04-06T08:03:10.175Z,102060.35
2018-04-06T08:05:38.740Z,102063.69
2018-04-06T08:08:08.540Z,102064.41
2018-04-06T08:10:42.738Z,102062.29
2018-04-06T08:13:15.303Z,102060.89
2018-04-06T08:15:43.806Z,102060.82
2018-04-06T08:18:13.735Z,102064.52
2018-04-06T08:20:43.169Z,102063.40
2018-04-06T08:23:21.190Z,102069.38
2018-04-06T08:25:52.700Z,102068.80
2018-04-06T08:28:26.624Z,102072.18
2018-04-06T08:30:55.559Z,102074.66
2018-04-06T08:33:24.043Z,102077.92
2018-04-06T08:35:56.152Z,102075.00
2018-04-06T08:38:27.798Z,102069.95
2018-04-06T08:40:56.290Z,102067.72
2018-04-06T08:43:26.938Z,102068.70
2018-04-06T08:45:54.486Z,102064.45
2018-04-06T08:48:25.103Z,102069.33
2018-04-06T08:50:57.116Z,102081.88
2018-04-06T08:53:27.383Z,102077.83
2018-04-06T08:55:57.720Z,102079.88
2018-04-06T08:58:25.268Z,102081.41
2018-04-06T09:00:53.486Z,102090.14
2018-04-06T09:03:24.015Z,102085.48
2018-04-06T09:05:54.136Z,102089.56
2018-04-06T09:08:24.624Z,102081.73
2018-04-06T09:10:53.035Z,102082.31
2018-04-06T09:13:24.978Z,102085.00
2018-04-06T09:15:54.292Z,102087.48
2018-04-06T09:18:27.126Z,102087.78
2018-04-06T09:21:00.637Z,102086.05
2018-04-06T09:23:29.967Z,102090.56
2018-04-06T09:25:58.046Z,102088.73
2018-04-06T09:28:26.765Z,102085.62
2018-04-06T09:31:00.933Z,102078.00
2018-04-06T09:33:31.898Z,102081.50
2018-04-06T09:36:06.350Z,102069.59
2018-04-06T09:38:36.106Z,102068.28
2018-04-06T09:41:07.491Z,102066.02
2018-04-06T09:43:36.753Z,102072.57
2018-04-06T09:46:06.952Z,102076.16
2018-04-06T09:48:45.230Z,102074.11
2018-04-06T09:51:14.884Z,102069.27
2018-04-06T09:53:47.439Z,102070.63
2018-04-06T09:56:15.285Z,102060.94
2018-04-06T09:58:50.486Z,102059.60
2018-04-06T10:01:18.103Z,102055.41
2018-04-06T10:03:49.206Z,102060.77
2018-04-06T10:06:20.352Z,102049.84
2018-04-06T10:08:47.896Z,102046.70
2018-04-06T10:11:17.591Z,102039.84
2018-04-06T10:13:46.900Z,102039.55
2018-04-06T10:16:15.658Z,102042.27
2018-04-06T10:18:47.543Z,102025.48
2018-04-06T10:21:19.600Z,102032.86
2018-04-06T10:23:51.363Z,102030.11
2018-04-06T10:26:19.578Z,102039.94
2018-04-06T10:28:48.202Z,102036.53
2018-04-06T10:33:51.730Z,102030.39
2018-04-06T10:36:25.372Z,102031.55
2018-04-06T10:38:55.066Z,102021.45
2018-04-06T10:41:23.399Z,102022.91
2018-04-06T10:43:51.801Z,102014.91
2018-04-06T10:46:20.709Z,102016.09
2018-04-06T10:48:53.220Z,102013.50
2018-04-06T10:51:21.807Z,102007.59
2018-04-06T10:53:54.139Z,102007.16
2018-04-06T10:56:22.458Z,102003.34
2018-04-06T10:58:55.698Z,101994.56
2018-04-06T11:01:23.899Z,101991.86
2018-04-06T11:03:52.332Z,101993.84
2018-04-06T11:06:22.716Z,101990.58
2018-04-06T11:08:54.826Z,101995.67
2018-04-06T11:11:24.036Z,101990.06
2018-04-06T11:13:56.618Z,101998.25
2018-04-06T11:16:25.684Z,102001.77
2018-04-06T11:18:58.915Z,101996.52
2018-04-06T11:21:28.807Z,101995.84
2018-04-06T11:23:58.060Z,101999.36
2018-04-06T11:26:27.895Z,101991.77
2018-04-06T11:28:56.790Z,101995.67
2018-04-06T11:31:26.593Z,101989.94
2018-04-06T11:36:35.759Z,101990.64
2018-04-06T11:39:06.366Z,101997.05
2018-04-06T11:41:37.375Z,101990.15
2018-04-06T11:44:08.264Z,101991.78
2018-04-06T11:46:35.972Z,101997.78
2018-04-06T11:49:05.521Z,101993.91
2018-04-06T11:51:34.642Z,101995.11
2018-04-06T11:54:03.868Z,101994.97
2018-04-06T11:56:33.063Z,101992.87
2018-04-06T11:59:02.982Z,101994.88
2018-04-06T12:01:31.749Z,101987.31
2018-04-06T12:04:07.894Z,101991.02
2018-04-06T12:06:36.111Z,101992.44
2018-04-06T12:09:08.029Z,101989.63
2018-04-06T12:11:42.835Z,101986.95
2018-04-06T12:14:11.944Z,101984.29
2018-04-06T12:16:41.439Z,101983.42
2018-04-06T12:19:13.642Z,101987.09
2018-04-06T12:21:45.309Z,101984.89
2018-04-06T12:24:16.295Z,101979.71
2018-04-06T12:26:52.796Z,101980.27
2018-04-06T12:29:21.302Z,101982.44
2018-04-06T12:31:49.366Z,101972.12
2018-04-06T12:34:22.419Z,101973.36
2018-04-06T12:39:25.115Z,101979.70
2018-04-06T12:41:54.524Z,101975.00
2018-04-06T12:44:24.120Z,101973.80
2018-04-06T12:46:55.224Z,101969.69
2018-04-06T12:49:23.260Z,101968.72
2018-04-06T12:51:54.475Z,101971.02
2018-04-06T12:54:25.137Z,101963.70
2018-04-06T12:56:55.406Z,101967.66
2018-04-06T12:59:28.726Z,101961.81
2018-04-06T13:04:36.150Z,101961.73
2018-04-06T13:07:06.197Z,101960.97
2018-04-06T13:09:34.654Z,101964.55
2018-04-06T13:12:04.503Z,101961.94
2018-04-06T13:14:40.661Z,101953.07
2018-04-06T13:17:11.820Z,101955.83
2018-04-06T13:19:41.955Z,101951.29
2018-04-06T13:22:11.723Z,101954.49
2018-04-06T13:24:44.820Z,101948.97
2018-04-06T13:27:13.971Z,101952.19
2018-04-06T13:29:49.582Z,101950.14
2018-04-06T13:32:19.351Z,101946.07
2018-04-06T13:34:51.868Z,101947.65
2018-04-06T13:37:24.350Z,101939.33
2018-04-06T13:39:54.139Z,101941.17
2018-04-06T13:42:24.080Z,101938.40
2018-04-06T13:44:57.199Z,101923.81
2018-04-06T13:47:26.784Z,101927.14
2018-04-06T13:49:58.823Z,101934.52
2018-04-06T13:52:30.431Z,101933.06
2018-04-06T13:55:01.659Z,101926.68
2018-04-06T13:57:34.199Z,101928.45
2018-04-06T14:00:07.371Z,101927.95
2018-04-06T14:02:34.979Z,101917.36
2018-04-06T14:05:14.402Z,101916.97
2018-04-06T14:07:49.870Z,101914.60
2018-04-06T14:10:18.365Z,101909.30
2018-04-06T14:12:58.927Z,101911.10
2018-04-06T14:15:27.288Z,101908.22
2018-04-06T14:18:05.255Z,101904.69
2018-04-06T14:20:33.738Z,101899.30
2018-04-06T14:23:03.100Z,101893.52
2018-04-06T14:25:33.407Z,101895.55
2018-04-06T14:28:02.454Z,101888.45
2018-04-06T14:30:36.473Z,101880.64
2018-04-06T14:33:07.075Z,101880.14
2018-04-06T14:35:36.285Z,101883.22
2018-04-06T14:38:12.731Z,101880.59
2018-04-06T14:40:40.834Z,101881.02
2018-04-06T14:43:11.199Z,101882.43
2018-04-06T14:45:42.761Z,101882.16
2018-04-06T14:48:18.822Z,101876.02
2018-04-06T14:50:46.371Z,101876.92
2018-04-06T14:53:15.619Z,101879.08
2018-04-06T14:55:52.798Z,101880.82
2018-04-06T14:58:23.444Z,101876.86
2018-04-06T15:00:54.613Z,101867.07
2018-04-06T15:03:26.039Z,101864.89
2018-04-06T15:05:54.955Z,101866.90
2018-04-06T15:08:25.464Z,101871.89
2018-04-06T15:10:53.094Z,101869.00
2018-04-06T15:13:25.209Z,101861.23
2018-04-06T15:15:57.190Z,101867.78
2018-04-06T15:18:36.938Z,101864.59
2018-04-06T15:21:15.401Z,101860.87
2018-04-06T15:23:43.939Z,101862.93
2018-04-06T15:26:14.617Z,101862.55
2018-04-06T15:28:42.226Z,101858.07
2018-04-06T15:31:12.324Z,101862.23
2018-04-06T15:33:39.946Z,101857.59
2018-04-06T15:36:09.757Z,101850.16
2018-04-06T15:38:53.598Z,101852.14
2018-04-06T15:41:27.494Z,101852.52
2018-04-06T15:43:57.072Z,101846.84
2018-04-06T15:46:32.027Z,101845.70
2018-04-06T15:49:00.007Z,101840.28
2018-04-06T15:51:32.662Z,101843.25
2018-04-06T15:54:00.265Z,101853.02
2018-04-06T15:56:29.993Z,101857.58
2018-04-06T15:58:59.367Z,101854.82
2018-04-06T16:01:27.230Z,101859.67
2018-04-06T16:03:58.051Z,101850.97
2018-04-06T16:06:27.985Z,101846.09
2018-04-06T16:09:02.441Z,101847.09
2018-04-06T16:11:32.467Z,101849.78
2018-04-06T16:16:39.294Z,101849.58
2018-04-06T16:19:13.708Z,101846.13
2018-04-06T16:21:42.098Z,101843.52
2018-04-06T16:24:15.882Z,101839.36
2018-04-06T16:26:46.514Z,101842.66
2018-04-06T16:29:19.905Z,101848.23
2018-04-06T16:31:53.231Z,101839.51
2018-04-06T16:34:20.804Z,101844.95
2018-04-06T16:36:52.534Z,101843.99
2018-04-06T16:39:22.943Z,101844.90
2018-04-06T16:41:54.438Z,101846.09
2018-04-06T16:44:23.523Z,101848.67
2018-04-06T16:46:51.121Z,101851.30
2018-04-06T16:49:24.173Z,101850.20
2018-04-06T16:51:57.137Z,101848.29
2018-04-06T16:54:31.045Z,101852.44
2018-04-06T16:57:00.566Z,101846.68
2018-04-06T16:59:38.112Z,101847.09
2018-04-06T17:02:10.707Z,101852.19
2018-04-06T17:04:40.794Z,101854.45
2018-04-06T17:07:08.357Z,101854.43
2018-04-06T17:09:37.886Z,101849.92
2018-04-06T17:12:10.747Z,101854.39
2018-04-06T17:14:53.122Z,101848.17
2018-04-06T17:17:22.525Z,101856.34
2018-04-06T17:19:55.709Z,101855.16
2018-04-06T17:22:24.197Z,101855.92
2018-04-06T17:24:52.940Z,101843.45
2018-04-06T17:27:26.991Z,101846.02
2018-04-06T17:29:57.587Z,101848.13
2018-04-06T17:32:29.296Z,101857.89
2018-04-06T17:35:02.926Z,101855.34
2018-04-06T17:37:31.351Z,101858.88
2018-04-06T17:40:01.131Z,101860.39
2018-04-06T17:42:35.007Z,101865.31
2018-04-06T17:45:11.422Z,101875.81
2018-04-06T17:47:40.070Z,101880.69
2018-04-06T17:50:11.208Z,101883.42
2018-04-06T17:52:39.726Z,101893.31
2018-04-06T17:55:07.756Z,101899.33
2018-04-06T17:57:37.400Z,101902.19
2018-04-06T18:00:06.057Z,101900.70
2018-04-06T18:02:40.758Z,101903.97
2018-04-06T18:05:14.756Z,101900.09
2018-04-06T18:07:45.819Z,101900.48
2018-04-06T18:10:15.921Z,101896.34
2018-04-06T18:12:49.989Z,101907.25
2018-04-06T18:15:19.662Z,101911.67
2018-04-06T18:17:49.290Z,101908.67
2018-04-06T18:20:18.132Z,101907.30
2018-04-06T18:22:49.210Z,101911.28
2018-04-06T18:25:19.903Z,101915.50
2018-04-06T18:27:48.133Z,101911.87
2018-04-06T18:30:16.147Z,101919.97
2018-04-06T18:32:48.798Z,101913.77
2018-04-06T18:35:17.300Z,101919.30
2018-04-06T18:38:02.075Z,101922.28
2018-04-06T18:40:34.194Z,101930.05
2018-04-06T18:43:02.640Z,101933.73
2018-04-06T18:45:33.814Z,101924.25
2018-04-06T18:48:04.583Z,101926.77
2018-04-06T18:53:10.317Z,101926.41
2018-04-06T18:55:42.133Z,101922.05
2018-04-06T18:58:10.676Z,101920.69
2018-04-06T19:00:39.840Z,101924.70
2018-04-06T19:03:14.820Z,101931.71
2018-04-06T19:05:48.109Z,101931.19
2018-04-06T19:08:22.636Z,101928.70
2018-04-06T19:10:54.863Z,101924.02
2018-04-06T19:13:28.506Z,101926.02
2018-04-06T19:16:01.917Z,101922.98
2018-04-06T19:18:31.589Z,101919.16
2018-04-06T19:21:20.241Z,101915.97
2018-04-06T19:23:48.422Z,101914.22
2018-04-06T19:26:21.196Z,101913.86
2018-04-06T19:28:50.970Z,101910.73
2018-04-06T19:31:24.330Z,101903.99
2018-04-06T19:33:53.799Z,101903.55
2018-04-06T19:36:22.853Z,101912.30
2018-04-06T19:38:57.360Z,101909.45
2018-04-06T19:41:29.534Z,101910.56
2018-04-06T19:44:11.896Z,101904.05
2018-04-06T19:46:50.022Z,101903.75
2018-04-06T19:49:22.391Z,101899.32
2018-04-06T19:51:52.999Z,101896.31
2018-04-06T19:57:02.359Z,101896.75
2018-04-06T19:59:32.132Z,101896.12
2018-04-06T20:02:02.441Z,101899.33
2018-04-06T20:04:41.440Z,101908.98
2018-04-06T20:07:09.738Z,101910.45
2018-04-06T20:09:40.049Z,101906.19
2018-04-06T20:12:16.944Z,101902.44
2018-04-06T20:14:49.879Z,101898.57
2018-04-06T20:17:21.911Z,101900.00
2018-04-06T20:20:01.702Z,101898.50
2018-04-06T20:22:32.053Z,101893.45
2018-04-06T20:25:03.368Z,101887.36
2018-04-06T20:27:33.462Z,101884.04
2018-04-06T20:30:04.442Z,101884.48
2018-04-06T20:32:35.641Z,101872.66
2018-04-06T20:35:05.755Z,101870.41
2018-04-06T20:37:34.166Z,101865.83
2018-04-06T20:40:06.141Z,101864.09
2018-04-06T20:42:34.485Z,101863.95
2018-04-06T20:45:02.443Z,101865.53
2018-04-06T20:47:34.495Z,101860.00
2018-04-06T20:50:06.418Z,101852.19
2018-04-06T20:52:38.253Z,101847.52
2018-04-06T20:55:07.830Z,101853.76
2018-04-06T20:57:37.313Z,101850.52
2018-04-06T21:00:05.543Z,101841.70
2018-04-06T21:05:08.824Z,101853.48
2018-04-06T21:07:40.303Z,101849.26
2018-04-06T21:10:10.511Z,101849.44
2018-04-06T21:12:43.292Z,101849.03
2018-04-06T21:15:13.028Z,101852.03
2018-04-06T21:17:43.071Z,101848.66
2018-04-06T21:20:13.906Z,101853.98
2018-04-06T21:22:43.646Z,101847.27
2018-04-06T21:25:12.007Z,101851.66
2018-04-06T21:27:41.143Z,101850.65
2018-04-06T21:30:08.695Z,101853.10
2018-04-06T21:35:11.194Z,101855.58
2018-04-06T21:37:39.360Z,101848.18
2018-04-06T21:40:07.611Z,101842.70
2018-04-06T21:42:37.064Z,101847.14
2018-04-06T21:45:06.853Z,101852.38
2018-04-06T21:47:37.268Z,101848.37
2018-04-06T21:50:06.752Z,101853.50
2018-04-06T21:52:35.108Z,101852.41
2018-04-06T21:55:05.425Z,101856.87
2018-04-06T21:57:37.367Z,101856.06
2018-04-06T22:00:06.844Z,101852.83
2018-04-06T22:05:11.265Z,101848.77
2018-04-06T22:07:52.135Z,101853.28
2018-04-06T22:10:21.509Z,101853.39
2018-04-06T22:12:50.038Z,101852.47
2018-04-06T22:15:25.609Z,101850.45
2018-04-06T22:17:54.585Z,101847.86
2018-04-06T22:20:26.577Z,101849.32
2018-04-06T22:22:55.110Z,101844.51
2018-04-06T22:25:26.351Z,101848.73
2018-04-06T22:27:53.907Z,101842.98
2018-04-06T22:30:34.234Z,101848.29
2018-04-06T22:33:03.298Z,101853.84
2018-04-06T22:35:33.643Z,101846.93
2018-04-06T22:38:22.059Z,101851.98
2018-04-06T22:40:56.382Z,101847.06
2018-04-06T22:43:26.990Z,101842.50
2018-04-06T22:45:57.117Z,101848.33
2018-04-06T22:48:28.372Z,101845.98
2018-04-06T22:50:58.779Z,101843.77
2018-04-06T22:53:27.562Z,101852.94
2018-04-06T22:55:57.483Z,101852.04
2018-04-06T23:21:10.366Z,101838.45
2018-04-06T23:23:37.911Z,101830.13
2018-04-06T23:26:11.587Z,101829.31
2018-04-06T23:28:48.731Z,101825.27
2018-04-06T23:31:16.838Z,101827.11
2018-04-06T23:34:00.169Z,101826.38
2018-04-06T23:36:29.422Z,101817.08
2018-04-06T23:38:59.878Z,101822.67
2018-04-06T23:41:28.901Z,101823.19
2018-04-06T23:43:56.482Z,101825.82
2018-04-06T23:46:24.023Z,101823.20
2018-04-06T23:48:54.042Z,101826.22
2018-04-06T23:51:24.647Z,101826.73
2018-04-06T23:53:54.568Z,101821.24
2018-04-06T23:56:24.910Z,101819.14
2018-04-06T23:58:53.259Z,101813.59
